sensor_id;sensor_type;location;lat;lon;timestamp;P1;durP1;ratioP1;P2;durP2;ratioP2
9771;SDS011;4925;52.588;13.370;2023-04-06T00:01:02;4.70;;;3.30;;
9771;SDS011;4925;52.588;13.370;2023-04-06T00:03:27;6.03;;;3.50;;
9771;SDS011;4925;52.588;13.370;2023-04-06T00:05:53;6.10;;;3.13;;
9771;SDS011;4925;52.588;13.370;2023-04-06T00:08:19;6.87;;;3.43;;
9771;SDS011;4925;52.588;13.370;2023-04-06T00:10:46;5.37;;;3.30;;
9771;SDS011;4925;52.588;13.370;2023-04-06T00:13:12;6.03;;;3.97;;
9771;SDS011;4925;52.588;13.370;2023-04-06T00:15:38;4.40;;;3.40;;
9771;SDS011;4925;52.588;13.370;2023-04-06T00:18:03;4.53;;;3.07;;
9771;SDS011;4925;52.588;13.370;2023-04-06T00:20:29;5.43;;;3.40;;
9771;SDS011;4925;52.588;13.370;2023-04-06T00:22:55;5.30;;;3.30;;
9771;SDS011;4925;52.588;13.370;2023-04-06T00:25:21;5.93;;;3.47;;
9771;SDS011;4925;52.588;13.370;2023-04-06T00:27:47;4.17;;;2.97;;
9771;SDS011;4925;52.588;13.370;2023-04-06T00:30:13;3.73;;;3.07;;
9771;SDS011;4925;52.588;13.370;2023-04-06T00:32:38;3.50;;;3.10;;
9771;SDS011;4925;52.588;13.370;2023-04-06T00:35:04;5.57;;;2.70;;
9771;SDS011;4925;52.588;13.370;2023-04-06T00:37:31;4.80;;;2.60;;
9771;SDS011;4925;52.588;13.370;2023-04-06T00:39:57;4.73;;;3.13;;
9771;SDS011;4925;52.588;13.370;2023-04-06T00:42:22;5.33;;;2.97;;
9771;SDS011;4925;52.588;13.370;2023-04-06T00:44:52;7.43;;;3.50;;
9771;SDS011;4925;52.588;13.370;2023-04-06T00:47:19;6.27;;;3.27;;
9771;SDS011;4925;52.588;13.370;2023-04-06T00:49:46;5.20;;;3.10;;
9771;SDS011;4925;52.588;13.370;2023-04-06T00:52:12;4.47;;;3.00;;
9771;SDS011;4925;52.588;13.370;2023-04-06T00:54:38;3.87;;;3.37;;
9771;SDS011;4925;52.588;13.370;2023-04-06T00:57:03;4.73;;;3.10;;
9771;SDS011;4925;52.588;13.370;2023-04-06T00:59:29;5.73;;;3.83;;
9771;SDS011;4925;52.588;13.370;2023-04-06T01:01:55;5.90;;;3.97;;
9771;SDS011;4925;52.588;13.370;2023-04-06T01:04:21;5.80;;;3.93;;
9771;SDS011;4925;52.588;13.370;2023-04-06T01:06:50;10.80;;;4.67;;
9771;SDS011;4925;52.588;13.370;2023-04-06T01:09:19;8.30;;;4.07;;
9771;SDS011;4925;52.588;13.370;2023-04-06T01:11:44;7.33;;;4.50;;
9771;SDS011;4925;52.588;13.370;2023-04-06T01:14:10;9.93;;;4.97;;
9771;SDS011;4925;52.588;13.370;2023-04-06T01:16:36;7.93;;;3.97;;
9771;SDS011;4925;52.588;13.370;2023-04-06T01:19:08;6.37;;;3.53;;
9771;SDS011;4925;52.588;13.370;2023-04-06T01:21:36;5.00;;;3.23;;
9771;SDS011;4925;52.588;13.370;2023-04-06T01:24:02;3.93;;;3.20;;
9771;SDS011;4925;52.588;13.370;2023-04-06T01:26:29;5.57;;;3.10;;
9771;SDS011;4925;52.588;13.370;2023-04-06T01:28:55;7.87;;;3.37;;
9771;SDS011;4925;52.588;13.370;2023-04-06T01:31:21;4.77;;;3.10;;
9771;SDS011;4925;52.588;13.370;2023-04-06T01:33:47;2.93;;;2.63;;
9771;SDS011;4925;52.588;13.370;2023-04-06T01:36:13;3.67;;;2.73;;
9771;SDS011;4925;52.588;13.370;2023-04-06T01:38:39;3.83;;;2.90;;
9771;SDS011;4925;52.588;13.370;2023-04-06T01:41:06;5.40;;;2.90;;
9771;SDS011;4925;52.588;13.370;2023-04-06T01:43:33;5.10;;;3.07;;
9771;SDS011;4925;52.588;13.370;2023-04-06T01:45:59;6.73;;;3.10;;
9771;SDS011;4925;52.588;13.370;2023-04-06T01:48:25;5.23;;;3.20;;
9771;SDS011;4925;52.588;13.370;2023-04-06T01:50:51;3.63;;;2.93;;
9771;SDS011;4925;52.588;13.370;2023-04-06T01:53:18;4.47;;;2.83;;
9771;SDS011;4925;52.588;13.370;2023-04-06T01:55:43;4.23;;;2.63;;
9771;SDS011;4925;52.588;13.370;2023-04-06T01:58:09;6.27;;;3.17;;
9771;SDS011;4925;52.588;13.370;2023-04-06T02:00:35;4.60;;;2.60;;
9771;SDS011;4925;52.588;13.370;2023-04-06T02:03:01;5.73;;;2.80;;
9771;SDS011;4925;52.588;13.370;2023-04-06T02:05:28;8.00;;;3.40;;
9771;SDS011;4925;52.588;13.370;2023-04-06T02:07:55;7.43;;;3.27;;
9771;SDS011;4925;52.588;13.370;2023-04-06T02:10:21;5.00;;;3.13;;
9771;SDS011;4925;52.588;13.370;2023-04-06T02:12:47;6.73;;;3.43;;
9771;SDS011;4925;52.588;13.370;2023-04-06T02:15:13;5.83;;;3.40;;
9771;SDS011;4925;52.588;13.370;2023-04-06T02:17:40;5.50;;;3.10;;
9771;SDS011;4925;52.588;13.370;2023-04-06T02:20:06;7.23;;;3.37;;
9771;SDS011;4925;52.588;13.370;2023-04-06T02:22:32;8.33;;;3.97;;
9771;SDS011;4925;52.588;13.370;2023-04-06T02:24:59;6.03;;;3.77;;
9771;SDS011;4925;52.588;13.370;2023-04-06T02:27:25;5.40;;;3.33;;
9771;SDS011;4925;52.588;13.370;2023-04-06T02:29:51;5.30;;;3.53;;
9771;SDS011;4925;52.588;13.370;2023-04-06T02:32:16;4.97;;;3.40;;
9771;SDS011;4925;52.588;13.370;2023-04-06T02:34:42;6.87;;;3.40;;
9771;SDS011;4925;52.588;13.370;2023-04-06T02:37:08;6.17;;;3.67;;
9771;SDS011;4925;52.588;13.370;2023-04-06T02:39:33;4.47;;;2.87;;
9771;SDS011;4925;52.588;13.370;2023-04-06T02:41:59;4.77;;;3.20;;
9771;SDS011;4925;52.588;13.370;2023-04-06T02:44:25;9.13;;;3.50;;
9771;SDS011;4925;52.588;13.370;2023-04-06T02:46:51;9.77;;;3.57;;
9771;SDS011;4925;52.588;13.370;2023-04-06T02:49:16;6.57;;;3.90;;
9771;SDS011;4925;52.588;13.370;2023-04-06T02:51:42;6.20;;;3.53;;
9771;SDS011;4925;52.588;13.370;2023-04-06T02:54:08;4.20;;;3.80;;
9771;SDS011;4925;52.588;13.370;2023-04-06T02:56:34;4.00;;;3.17;;
9771;SDS011;4925;52.588;13.370;2023-04-06T02:58:59;7.10;;;3.60;;
9771;SDS011;4925;52.588;13.370;2023-04-06T03:01:25;7.07;;;3.80;;
9771;SDS011;4925;52.588;13.370;2023-04-06T03:03:51;10.00;;;3.73;;
9771;SDS011;4925;52.588;13.370;2023-04-06T03:06:17;5.87;;;3.30;;
9771;SDS011;4925;52.588;13.370;2023-04-06T03:08:43;6.90;;;3.73;;
9771;SDS011;4925;52.588;13.370;2023-04-06T03:11:08;6.53;;;4.07;;
9771;SDS011;4925;52.588;13.370;2023-04-06T03:13:35;9.33;;;3.53;;
9771;SDS011;4925;52.588;13.370;2023-04-06T03:16:03;5.53;;;3.63;;
9771;SDS011;4925;52.588;13.370;2023-04-06T03:18:32;8.30;;;3.77;;
9771;SDS011;4925;52.588;13.370;2023-04-06T03:20:58;9.20;;;3.80;;
9771;SDS011;4925;52.588;13.370;2023-04-06T03:23:25;5.87;;;3.87;;
9771;SDS011;4925;52.588;13.370;2023-04-06T03:25:51;9.20;;;3.40;;
9771;SDS011;4925;52.588;13.370;2023-04-06T03:28:17;7.20;;;3.30;;
9771;SDS011;4925;52.588;13.370;2023-04-06T03:30:42;7.10;;;3.80;;
9771;SDS011;4925;52.588;13.370;2023-04-06T03:33:08;6.10;;;3.70;;
9771;SDS011;4925;52.588;13.370;2023-04-06T03:35:34;11.23;;;4.30;;
9771;SDS011;4925;52.588;13.370;2023-04-06T03:38:01;10.77;;;3.70;;
9771;SDS011;4925;52.588;13.370;2023-04-06T03:40:27;8.20;;;3.73;;
9771;SDS011;4925;52.588;13.370;2023-04-06T03:42:53;6.07;;;4.00;;
9771;SDS011;4925;52.588;13.370;2023-04-06T03:45:19;10.27;;;3.70;;
9771;SDS011;4925;52.588;13.370;2023-04-06T03:47:45;10.53;;;3.50;;
9771;SDS011;4925;52.588;13.370;2023-04-06T03:50:11;8.67;;;3.43;;
9771;SDS011;4925;52.588;13.370;2023-04-06T03:52:36;5.47;;;4.20;;
9771;SDS011;4925;52.588;13.370;2023-04-06T03:55:02;4.73;;;3.23;;
9771;SDS011;4925;52.588;13.370;2023-04-06T03:57:28;5.10;;;3.60;;
9771;SDS011;4925;52.588;13.370;2023-04-06T03:59:54;7.27;;;3.53;;
9771;SDS011;4925;52.588;13.370;2023-04-06T04:02:20;8.77;;;3.60;;
9771;SDS011;4925;52.588;13.370;2023-04-06T04:04:45;7.83;;;3.70;;
9771;SDS011;4925;52.588;13.370;2023-04-06T04:07:11;8.90;;;4.13;;
9771;SDS011;4925;52.588;13.370;2023-04-06T04:09:37;6.07;;;3.70;;
9771;SDS011;4925;52.588;13.370;2023-04-06T04:12:03;6.13;;;4.13;;
9771;SDS011;4925;52.588;13.370;2023-04-06T04:14:28;5.17;;;3.97;;
9771;SDS011;4925;52.588;13.370;2023-04-06T04:16:54;8.17;;;4.43;;
9771;SDS011;4925;52.588;13.370;2023-04-06T04:19:20;11.37;;;4.37;;
9771;SDS011;4925;52.588;13.370;2023-04-06T04:21:46;11.37;;;4.67;;
9771;SDS011;4925;52.588;13.370;2023-04-06T04:24:12;12.30;;;5.30;;
9771;SDS011;4925;52.588;13.370;2023-04-06T04:26:38;8.67;;;4.80;;
9771;SDS011;4925;52.588;13.370;2023-04-06T04:29:04;13.70;;;4.47;;
9771;SDS011;4925;52.588;13.370;2023-04-06T04:31:30;8.93;;;4.77;;
9771;SDS011;4925;52.588;13.370;2023-04-06T04:33:57;7.07;;;4.70;;
9771;SDS011;4925;52.588;13.370;2023-04-06T04:36:23;9.83;;;4.77;;
9771;SDS011;4925;52.588;13.370;2023-04-06T04:38:50;11.73;;;5.00;;
9771;SDS011;4925;52.588;13.370;2023-04-06T04:41:16;13.73;;;4.87;;
9771;SDS011;4925;52.588;13.370;2023-04-06T04:43:42;24.13;;;6.10;;
9771;SDS011;4925;52.588;13.370;2023-04-06T04:46:08;11.77;;;4.73;;
9771;SDS011;4925;52.588;13.370;2023-04-06T04:48:34;7.40;;;4.90;;
9771;SDS011;4925;52.588;13.370;2023-04-06T04:50:59;14.87;;;5.03;;
9771;SDS011;4925;52.588;13.370;2023-04-06T04:53:25;8.37;;;4.57;;
9771;SDS011;4925;52.588;13.370;2023-04-06T04:55:51;13.80;;;5.97;;
9771;SDS011;4925;52.588;13.370;2023-04-06T04:58:17;10.43;;;5.13;;
9771;SDS011;4925;52.588;13.370;2023-04-06T05:00:44;11.07;;;4.30;;
9771;SDS011;4925;52.588;13.370;2023-04-06T05:03:18;9.50;;;4.90;;
9771;SDS011;4925;52.588;13.370;2023-04-06T05:05:47;17.77;;;5.10;;
9771;SDS011;4925;52.588;13.370;2023-04-06T05:08:13;8.80;;;5.33;;
9771;SDS011;4925;52.588;13.370;2023-04-06T05:10:39;13.37;;;5.47;;
9771;SDS011;4925;52.588;13.370;2023-04-06T05:13:05;9.97;;;5.00;;
9771;SDS011;4925;52.588;13.370;2023-04-06T05:15:31;9.03;;;4.90;;
9771;SDS011;4925;52.588;13.370;2023-04-06T05:17:59;10.23;;;5.23;;
9771;SDS011;4925;52.588;13.370;2023-04-06T05:20:26;11.87;;;5.43;;
9771;SDS011;4925;52.588;13.370;2023-04-06T05:22:52;14.87;;;6.23;;
9771;SDS011;4925;52.588;13.370;2023-04-06T05:25:18;10.63;;;5.77;;
9771;SDS011;4925;52.588;13.370;2023-04-06T05:27:44;16.97;;;5.97;;
9771;SDS011;4925;52.588;13.370;2023-04-06T05:30:10;10.73;;;5.03;;
9771;SDS011;4925;52.588;13.370;2023-04-06T05:32:36;19.67;;;6.17;;
9771;SDS011;4925;52.588;13.370;2023-04-06T05:35:02;16.63;;;5.70;;
9771;SDS011;4925;52.588;13.370;2023-04-06T05:37:28;16.27;;;6.10;;
9771;SDS011;4925;52.588;13.370;2023-04-06T05:39:53;10.00;;;5.30;;
9771;SDS011;4925;52.588;13.370;2023-04-06T05:42:19;15.00;;;6.03;;
9771;SDS011;4925;52.588;13.370;2023-04-06T05:44:45;11.67;;;6.17;;
9771;SDS011;4925;52.588;13.370;2023-04-06T05:47:10;11.00;;;6.00;;
9771;SDS011;4925;52.588;13.370;2023-04-06T05:49:36;14.63;;;6.00;;
9771;SDS011;4925;52.588;13.370;2023-04-06T05:52:02;14.73;;;5.93;;
9771;SDS011;4925;52.588;13.370;2023-04-06T05:54:29;13.77;;;6.33;;
9771;SDS011;4925;52.588;13.370;2023-04-06T05:56:55;11.60;;;7.27;;
9771;SDS011;4925;52.588;13.370;2023-04-06T05:59:21;14.03;;;7.00;;
9771;SDS011;4925;52.588;13.370;2023-04-06T06:01:46;18.57;;;6.87;;
9771;SDS011;4925;52.588;13.370;2023-04-06T06:04:12;9.93;;;6.27;;
9771;SDS011;4925;52.588;13.370;2023-04-06T06:06:38;8.63;;;5.77;;
9771;SDS011;4925;52.588;13.370;2023-04-06T06:09:04;10.47;;;5.37;;
9771;SDS011;4925;52.588;13.370;2023-04-06T06:11:30;8.93;;;5.40;;
9771;SDS011;4925;52.588;13.370;2023-04-06T06:13:55;8.27;;;6.00;;
9771;SDS011;4925;52.588;13.370;2023-04-06T06:16:21;7.47;;;5.97;;
9771;SDS011;4925;52.588;13.370;2023-04-06T06:18:47;7.27;;;5.03;;
9771;SDS011;4925;52.588;13.370;2023-04-06T06:21:13;9.70;;;5.40;;
9771;SDS011;4925;52.588;13.370;2023-04-06T06:23:42;7.30;;;5.17;;
9771;SDS011;4925;52.588;13.370;2023-04-06T06:26:08;11.03;;;5.70;;
9771;SDS011;4925;52.588;13.370;2023-04-06T06:28:33;7.43;;;4.77;;
9771;SDS011;4925;52.588;13.370;2023-04-06T06:30:59;8.73;;;5.90;;
9771;SDS011;4925;52.588;13.370;2023-04-06T06:33:26;9.10;;;5.80;;
9771;SDS011;4925;52.588;13.370;2023-04-06T06:35:51;8.60;;;4.80;;
9771;SDS011;4925;52.588;13.370;2023-04-06T06:38:18;8.17;;;4.83;;
9771;SDS011;4925;52.588;13.370;2023-04-06T06:40:44;9.47;;;5.10;;
9771;SDS011;4925;52.588;13.370;2023-04-06T06:43:11;10.10;;;6.00;;
9771;SDS011;4925;52.588;13.370;2023-04-06T06:45:36;5.63;;;4.63;;
9771;SDS011;4925;52.588;13.370;2023-04-06T06:48:02;6.43;;;5.20;;
9771;SDS011;4925;52.588;13.370;2023-04-06T06:50:28;10.03;;;5.10;;
9771;SDS011;4925;52.588;13.370;2023-04-06T06:52:54;7.97;;;4.40;;
9771;SDS011;4925;52.588;13.370;2023-04-06T06:55:20;8.40;;;4.40;;
9771;SDS011;4925;52.588;13.370;2023-04-06T06:57:46;11.07;;;4.87;;
9771;SDS011;4925;52.588;13.370;2023-04-06T07:00:12;6.43;;;4.57;;
9771;SDS011;4925;52.588;13.370;2023-04-06T07:02:39;10.37;;;5.23;;
9771;SDS011;4925;52.588;13.370;2023-04-06T07:05:05;8.77;;;4.97;;
9771;SDS011;4925;52.588;13.370;2023-04-06T07:07:32;6.93;;;4.43;;
9771;SDS011;4925;52.588;13.370;2023-04-06T07:09:58;13.53;;;5.03;;
9771;SDS011;4925;52.588;13.370;2023-04-06T07:12:24;10.77;;;4.70;;
9771;SDS011;4925;52.588;13.370;2023-04-06T07:14:50;7.57;;;4.33;;
9771;SDS011;4925;52.588;13.370;2023-04-06T07:17:16;5.57;;;4.43;;
9771;SDS011;4925;52.588;13.370;2023-04-06T07:19:41;4.97;;;4.27;;
9771;SDS011;4925;52.588;13.370;2023-04-06T07:22:07;12.77;;;3.73;;
9771;SDS011;4925;52.588;13.370;2023-04-06T07:24:33;5.93;;;3.90;;
9771;SDS011;4925;52.588;13.370;2023-04-06T07:26:59;6.33;;;4.37;;
9771;SDS011;4925;52.588;13.370;2023-04-06T07:29:28;6.87;;;4.00;;
9771;SDS011;4925;52.588;13.370;2023-04-06T07:31:54;5.17;;;4.50;;
9771;SDS011;4925;52.588;13.370;2023-04-06T07:34:20;7.77;;;4.30;;
9771;SDS011;4925;52.588;13.370;2023-04-06T07:36:46;10.73;;;4.10;;
9771;SDS011;4925;52.588;13.370;2023-04-06T07:39:12;6.73;;;3.87;;
9771;SDS011;4925;52.588;13.370;2023-04-06T07:41:38;6.17;;;3.90;;
9771;SDS011;4925;52.588;13.370;2023-04-06T07:44:04;6.00;;;4.50;;
9771;SDS011;4925;52.588;13.370;2023-04-06T07:46:30;4.97;;;3.97;;
9771;SDS011;4925;52.588;13.370;2023-04-06T07:48:56;6.60;;;4.20;;
9771;SDS011;4925;52.588;13.370;2023-04-06T07:51:23;5.27;;;3.77;;
9771;SDS011;4925;52.588;13.370;2023-04-06T07:53:50;4.70;;;3.90;;
9771;SDS011;4925;52.588;13.370;2023-04-06T07:56:15;5.20;;;3.63;;
9771;SDS011;4925;52.588;13.370;2023-04-06T07:58:41;6.33;;;3.60;;
9771;SDS011;4925;52.588;13.370;2023-04-06T08:01:07;6.87;;;3.50;;
9771;SDS011;4925;52.588;13.370;2023-04-06T08:03:33;6.23;;;4.10;;
9771;SDS011;4925;52.588;13.370;2023-04-06T08:06:00;7.90;;;3.57;;
9771;SDS011;4925;52.588;13.370;2023-04-06T08:08:26;7.13;;;3.83;;
9771;SDS011;4925;52.588;13.370;2023-04-06T08:10:52;8.07;;;2.80;;
9771;SDS011;4925;52.588;13.370;2023-04-06T08:13:17;5.20;;;3.23;;
9771;SDS011;4925;52.588;13.370;2023-04-06T08:15:43;6.50;;;3.30;;
9771;SDS011;4925;52.588;13.370;2023-04-06T08:18:09;4.67;;;3.07;;
9771;SDS011;4925;52.588;13.370;2023-04-06T08:20:36;6.30;;;3.93;;
9771;SDS011;4925;52.588;13.370;2023-04-06T08:23:01;6.37;;;2.97;;
9771;SDS011;4925;52.588;13.370;2023-04-06T08:25:27;5.80;;;3.33;;
9771;SDS011;4925;52.588;13.370;2023-04-06T08:27:54;4.40;;;2.40;;
9771;SDS011;4925;52.588;13.370;2023-04-06T08:30:21;6.97;;;2.40;;
9771;SDS011;4925;52.588;13.370;2023-04-06T08:32:46;4.40;;;2.73;;
9771;SDS011;4925;52.588;13.370;2023-04-06T08:35:12;5.87;;;3.03;;
9771;SDS011;4925;52.588;13.370;2023-04-06T08:37:38;5.73;;;3.13;;
9771;SDS011;4925;52.588;13.370;2023-04-06T08:40:04;4.67;;;3.00;;
9771;SDS011;4925;52.588;13.370;2023-04-06T08:42:35;6.17;;;2.77;;
9771;SDS011;4925;52.588;13.370;2023-04-06T08:45:04;3.73;;;2.87;;
9771;SDS011;4925;52.588;13.370;2023-04-06T08:47:31;9.03;;;2.80;;
9771;SDS011;4925;52.588;13.370;2023-04-06T08:49:56;4.30;;;2.87;;
9771;SDS011;4925;52.588;13.370;2023-04-06T08:52:25;4.63;;;2.67;;
9771;SDS011;4925;52.588;13.370;2023-04-06T08:54:51;8.13;;;2.70;;
9771;SDS011;4925;52.588;13.370;2023-04-06T08:57:17;5.60;;;2.50;;
9771;SDS011;4925;52.588;13.370;2023-04-06T08:59:44;4.53;;;2.40;;
9771;SDS011;4925;52.588;13.370;2023-04-06T09:02:11;3.10;;;2.40;;
9771;SDS011;4925;52.588;13.370;2023-04-06T09:04:42;2.67;;;2.03;;
9771;SDS011;4925;52.588;13.370;2023-04-06T09:07:09;3.17;;;2.00;;
9771;SDS011;4925;52.588;13.370;2023-04-06T09:09:35;2.30;;;2.10;;
9771;SDS011;4925;52.588;13.370;2023-04-06T09:12:01;3.57;;;2.83;;
9771;SDS011;4925;52.588;13.370;2023-04-06T09:14:37;3.20;;;2.30;;
9771;SDS011;4925;52.588;13.370;2023-04-06T09:17:04;4.70;;;2.20;;
9771;SDS011;4925;52.588;13.370;2023-04-06T09:19:30;5.00;;;2.37;;
9771;SDS011;4925;52.588;13.370;2023-04-06T09:22:03;2.60;;;2.03;;
9771;SDS011;4925;52.588;13.370;2023-04-06T09:24:45;5.80;;;3.13;;
9771;SDS011;4925;52.588;13.370;2023-04-06T09:27:18;3.77;;;2.33;;
9771;SDS011;4925;52.588;13.370;2023-04-06T09:30:09;4.40;;;2.50;;
9771;SDS011;4925;52.588;13.370;2023-04-06T09:32:48;4.30;;;2.07;;
9771;SDS011;4925;52.588;13.370;2023-04-06T09:35:15;2.40;;;2.00;;
9771;SDS011;4925;52.588;13.370;2023-04-06T09:37:42;2.83;;;1.90;;
9771;SDS011;4925;52.588;13.370;2023-04-06T09:40:09;4.10;;;1.97;;
9771;SDS011;4925;52.588;13.370;2023-04-06T09:42:35;1.90;;;1.77;;
9771;SDS011;4925;52.588;13.370;2023-04-06T09:45:01;7.00;;;2.27;;
9771;SDS011;4925;52.588;13.370;2023-04-06T09:47:28;2.80;;;1.80;;
9771;SDS011;4925;52.588;13.370;2023-04-06T09:49:56;2.90;;;2.17;;
9771;SDS011;4925;52.588;13.370;2023-04-06T09:52:27;2.53;;;1.93;;
9771;SDS011;4925;52.588;13.370;2023-04-06T09:54:59;4.73;;;1.97;;
9771;SDS011;4925;52.588;13.370;2023-04-06T10:00:08;2.07;;;1.50;;
9771;SDS011;4925;52.588;13.370;2023-04-06T10:08:02;2.00;;;1.70;;
9771;SDS011;4925;52.588;13.370;2023-04-06T10:10:32;3.40;;;2.10;;
9771;SDS011;4925;52.588;13.370;2023-04-06T10:12:58;2.90;;;1.63;;
9771;SDS011;4925;52.588;13.370;2023-04-06T10:15:25;2.77;;;1.73;;
9771;SDS011;4925;52.588;13.370;2023-04-06T10:17:52;2.30;;;1.67;;
9771;SDS011;4925;52.588;13.370;2023-04-06T10:20:22;1.90;;;1.80;;
9771;SDS011;4925;52.588;13.370;2023-04-06T10:25:31;6.83;;;2.17;;
9771;SDS011;4925;52.588;13.370;2023-04-06T10:27:58;3.80;;;1.90;;
9771;SDS011;4925;52.588;13.370;2023-04-06T10:30:30;2.10;;;1.90;;
9771;SDS011;4925;52.588;13.370;2023-04-06T10:32:57;1.77;;;1.50;;
9771;SDS011;4925;52.588;13.370;2023-04-06T10:35:23;1.73;;;1.20;;
9771;SDS011;4925;52.588;13.370;2023-04-06T10:38:01;5.80;;;1.93;;
9771;SDS011;4925;52.588;13.370;2023-04-06T10:40:28;1.90;;;1.60;;
9771;SDS011;4925;52.588;13.370;2023-04-06T10:43:06;5.20;;;2.23;;
9771;SDS011;4925;52.588;13.370;2023-04-06T10:45:36;1.70;;;1.40;;
9771;SDS011;4925;52.588;13.370;2023-04-06T10:48:17;1.77;;;1.50;;
9771;SDS011;4925;52.588;13.370;2023-04-06T10:50:44;3.53;;;1.90;;
9771;SDS011;4925;52.588;13.370;2023-04-06T10:53:20;1.80;;;1.30;;
9771;SDS011;4925;52.588;13.370;2023-04-06T10:55:47;1.40;;;1.30;;
9771;SDS011;4925;52.588;13.370;2023-04-06T10:58:15;3.40;;;2.10;;
9771;SDS011;4925;52.588;13.370;2023-04-06T11:00:47;3.07;;;2.03;;
9771;SDS011;4925;52.588;13.370;2023-04-06T11:03:14;4.23;;;2.33;;
9771;SDS011;4925;52.588;13.370;2023-04-06T11:05:47;2.03;;;1.40;;
9771;SDS011;4925;52.588;13.370;2023-04-06T11:11:03;3.10;;;1.60;;
9771;SDS011;4925;52.588;13.370;2023-04-06T11:16:05;2.53;;;1.43;;
9771;SDS011;4925;52.588;13.370;2023-04-06T11:18:31;2.30;;;1.67;;
9771;SDS011;4925;52.588;13.370;2023-04-06T11:20:57;3.10;;;1.73;;
9771;SDS011;4925;52.588;13.370;2023-04-06T11:23:23;1.90;;;1.70;;
9771;SDS011;4925;52.588;13.370;2023-04-06T11:25:53;2.43;;;1.60;;
9771;SDS011;4925;52.588;13.370;2023-04-06T11:28:19;2.70;;;1.47;;
9771;SDS011;4925;52.588;13.370;2023-04-06T11:30:46;1.80;;;1.50;;
9771;SDS011;4925;52.588;13.370;2023-04-06T11:33:19;2.00;;;1.80;;
9771;SDS011;4925;52.588;13.370;2023-04-06T11:35:46;2.10;;;1.90;;
9771;SDS011;4925;52.588;13.370;2023-04-06T11:38:12;1.67;;;1.40;;
9771;SDS011;4925;52.588;13.370;2023-04-06T11:40:38;1.70;;;1.50;;
9771;SDS011;4925;52.588;13.370;2023-04-06T11:43:04;2.07;;;1.37;;
9771;SDS011;4925;52.588;13.370;2023-04-06T11:45:41;1.50;;;1.40;;
9771;SDS011;4925;52.588;13.370;2023-04-06T11:48:17;3.13;;;2.03;;
9771;SDS011;4925;52.588;13.370;2023-04-06T11:50:46;2.20;;;1.70;;
9771;SDS011;4925;52.588;13.370;2023-04-06T11:53:13;1.93;;;1.50;;
9771;SDS011;4925;52.588;13.370;2023-04-06T11:55:39;1.83;;;1.73;;
9771;SDS011;4925;52.588;13.370;2023-04-06T11:58:05;3.70;;;1.57;;
9771;SDS011;4925;52.588;13.370;2023-04-06T12:00:32;3.03;;;1.90;;
9771;SDS011;4925;52.588;13.370;2023-04-06T12:02:59;1.63;;;1.33;;
9771;SDS011;4925;52.588;13.370;2023-04-06T12:05:25;2.70;;;1.70;;
9771;SDS011;4925;52.588;13.370;2023-04-06T12:07:52;3.70;;;1.70;;
9771;SDS011;4925;52.588;13.370;2023-04-06T12:10:17;2.97;;;1.90;;
9771;SDS011;4925;52.588;13.370;2023-04-06T12:12:43;2.20;;;2.00;;
9771;SDS011;4925;52.588;13.370;2023-04-06T12:15:09;1.90;;;1.53;;
9771;SDS011;4925;52.588;13.370;2023-04-06T12:17:35;1.90;;;1.80;;
9771;SDS011;4925;52.588;13.370;2023-04-06T12:20:01;1.60;;;1.50;;
9771;SDS011;4925;52.588;13.370;2023-04-06T12:22:27;1.83;;;1.50;;
9771;SDS011;4925;52.588;13.370;2023-04-06T12:24:53;2.87;;;1.90;;
9771;SDS011;4925;52.588;13.370;2023-04-06T12:27:19;1.57;;;1.47;;
9771;SDS011;4925;52.588;13.370;2023-04-06T12:29:45;1.80;;;1.50;;
9771;SDS011;4925;52.588;13.370;2023-04-06T12:32:11;2.73;;;1.90;;
9771;SDS011;4925;52.588;13.370;2023-04-06T12:34:37;4.10;;;1.60;;
9771;SDS011;4925;52.588;13.370;2023-04-06T12:37:03;2.53;;;1.90;;
9771;SDS011;4925;52.588;13.370;2023-04-06T12:39:29;2.13;;;1.93;;
9771;SDS011;4925;52.588;13.370;2023-04-06T12:41:55;2.27;;;1.93;;
9771;SDS011;4925;52.588;13.370;2023-04-06T12:44:22;3.67;;;1.90;;
9771;SDS011;4925;52.588;13.370;2023-04-06T12:46:48;2.67;;;2.13;;
9771;SDS011;4925;52.588;13.370;2023-04-06T12:49:15;3.73;;;2.03;;
9771;SDS011;4925;52.588;13.370;2023-04-06T12:51:42;4.23;;;1.80;;
9771;SDS011;4925;52.588;13.370;2023-04-06T12:54:07;2.63;;;1.90;;
9771;SDS011;4925;52.588;13.370;2023-04-06T12:56:33;2.40;;;2.00;;
9771;SDS011;4925;52.588;13.370;2023-04-06T12:59:00;1.67;;;1.57;;
9771;SDS011;4925;52.588;13.370;2023-04-06T13:01:26;1.97;;;1.60;;
9771;SDS011;4925;52.588;13.370;2023-04-06T13:03:52;2.60;;;2.13;;
9771;SDS011;4925;52.588;13.370;2023-04-06T13:06:18;2.93;;;1.83;;
9771;SDS011;4925;52.588;13.370;2023-04-06T13:08:44;2.60;;;1.97;;
9771;SDS011;4925;52.588;13.370;2023-04-06T13:11:12;2.43;;;1.97;;
9771;SDS011;4925;52.588;13.370;2023-04-06T13:13:38;2.87;;;2.53;;
9771;SDS011;4925;52.588;13.370;2023-04-06T13:16:04;23.00;;;17.17;;
9771;SDS011;4925;52.588;13.370;2023-04-06T13:18:34;4.00;;;2.50;;
9771;SDS011;4925;52.588;13.370;2023-04-06T13:21:03;1.98;;;1.88;;
9771;SDS011;4925;52.588;13.370;2023-04-06T13:23:30;2.03;;;1.73;;
9771;SDS011;4925;52.588;13.370;2023-04-06T13:25:59;3.08;;;1.95;;
9771;SDS011;4925;52.588;13.370;2023-04-06T13:28:26;3.13;;;2.22;;
9771;SDS011;4925;52.588;13.370;2023-04-06T13:30:53;4.90;;;1.75;;
9771;SDS011;4925;52.588;13.370;2023-04-06T13:33:19;2.13;;;1.90;;
9771;SDS011;4925;52.588;13.370;2023-04-06T13:35:45;4.00;;;2.05;;
9771;SDS011;4925;52.588;13.370;2023-04-06T13:38:11;2.22;;;1.85;;
9771;SDS011;4925;52.588;13.370;2023-04-06T13:40:40;2.38;;;2.15;;
9771;SDS011;4925;52.588;13.370;2023-04-06T13:43:06;9.80;;;4.13;;
9771;SDS011;4925;52.588;13.370;2023-04-06T13:45:32;2.50;;;2.30;;
9771;SDS011;4925;52.588;13.370;2023-04-06T13:47:59;2.80;;;2.58;;
9771;SDS011;4925;52.588;13.370;2023-04-06T13:50:28;3.28;;;2.25;;
9771;SDS011;4925;52.588;13.370;2023-04-06T13:52:55;3.83;;;1.77;;
9771;SDS011;4925;52.588;13.370;2023-04-06T13:55:21;2.25;;;2.08;;
9771;SDS011;4925;52.588;13.370;2023-04-06T13:57:49;2.58;;;2.35;;
9771;SDS011;4925;52.588;13.370;2023-04-06T14:00:16;5.13;;;2.22;;
9771;SDS011;4925;52.588;13.370;2023-04-06T14:02:41;2.53;;;2.00;;
9771;SDS011;4925;52.588;13.370;2023-04-06T14:05:07;1.80;;;1.70;;
9771;SDS011;4925;52.588;13.370;2023-04-06T14:07:33;2.40;;;2.20;;
9771;SDS011;4925;52.588;13.370;2023-04-06T14:09:59;2.50;;;2.08;;
9771;SDS011;4925;52.588;13.370;2023-04-06T14:12:25;2.70;;;2.38;;
9771;SDS011;4925;52.588;13.370;2023-04-06T14:14:52;2.53;;;1.70;;
9771;SDS011;4925;52.588;13.370;2023-04-06T14:17:17;5.55;;;1.90;;
9771;SDS011;4925;52.588;13.370;2023-04-06T14:19:43;3.05;;;2.25;;
9771;SDS011;4925;52.588;13.370;2023-04-06T14:22:09;2.28;;;2.08;;
9771;SDS011;4925;52.588;13.370;2023-04-06T14:24:35;4.72;;;2.42;;
9771;SDS011;4925;52.588;13.370;2023-04-06T14:27:01;5.45;;;2.33;;
9771;SDS011;4925;52.588;13.370;2023-04-06T14:29:28;2.20;;;1.92;;
9771;SDS011;4925;52.588;13.370;2023-04-06T14:31:53;2.63;;;2.00;;
9771;SDS011;4925;52.588;13.370;2023-04-06T14:34:27;2.65;;;2.38;;
9771;SDS011;4925;52.588;13.370;2023-04-06T14:36:53;2.28;;;2.17;;
9771;SDS011;4925;52.588;13.370;2023-04-06T14:39:19;2.55;;;2.35;;
9771;SDS011;4925;52.588;13.370;2023-04-06T14:41:45;2.60;;;2.17;;
9771;SDS011;4925;52.588;13.370;2023-04-06T14:44:12;3.67;;;2.22;;
9771;SDS011;4925;52.588;13.370;2023-04-06T14:46:39;8.25;;;2.15;;
9771;SDS011;4925;52.588;13.370;2023-04-06T14:49:05;1.70;;;1.60;;
9771;SDS011;4925;52.588;13.370;2023-04-06T14:51:31;2.35;;;1.73;;
9771;SDS011;4925;52.588;13.370;2023-04-06T14:54:00;4.67;;;2.40;;
9771;SDS011;4925;52.588;13.370;2023-04-06T14:56:28;4.23;;;1.70;;
9771;SDS011;4925;52.588;13.370;2023-04-06T14:58:56;2.10;;;1.90;;
9771;SDS011;4925;52.588;13.370;2023-04-06T15:01:28;2.40;;;1.90;;
9771;SDS011;4925;52.588;13.370;2023-04-06T15:03:54;2.80;;;2.30;;
9771;SDS011;4925;52.588;13.370;2023-04-06T15:06:20;2.07;;;1.97;;
9771;SDS011;4925;52.588;13.370;2023-04-06T15:08:47;3.00;;;2.30;;
9771;SDS011;4925;52.588;13.370;2023-04-06T15:11:13;2.95;;;2.10;;
9771;SDS011;4925;52.588;13.370;2023-04-06T15:13:39;4.15;;;2.40;;